Time;durP1;ratioP1;P1;durP2;ratioP2;P2;SDS_P1;SDS_P2;PMS_P1;PMS_P2;Temp;Humidity;BMP_temperature;BMP_pressure;BME280_temperature;BME280_humidity;BME280_pressure;Samples;Min_cycle;Max_cycle;Signal;HPM_P1;HPM_P2
2021/09/10 00:01:08;;;;;;;11.77;10.67;;;18.50;99.90;;;;;;5039471;28;20451;-85
2021/09/10 00:06:22;;;;;;;13.43;11.03;;;18.40;99.90;;;;;;5079177;28;20473;-85
2021/09/10 00:09:00;;;;;;;13.50;11.50;;;18.80;99.90;;;;;;5081326;28;20433;-87
2021/09/10 00:11:30;;;;;;;12.37;11.20;;;;;;;;;;5079505;28;20504;-87
2021/09/10 00:14:15;;;;;;;11.80;10.63;;;18.40;99.90;;;;;;5073429;28;20508;-86
2021/09/10 00:16:53;;;;;;;12.60;11.40;;;20.00;99.90;;;;;;5062129;28;20448;-85
2021/09/10 00:19:35;;;;;;;13.00;10.60;;;18.30;99.90;;;;;;5061522;28;20434;-85
2021/09/10 00:22:12;;;;;;;12.70;10.63;;;18.50;99.90;;;;;;5062311;28;20457;-85
2021/09/10 00:24:50;;;;;;;13.07;11.80;;;18.30;99.90;;;;;;5060956;28;20993;-86
2021/09/10 00:27:20;;;;;;;13.83;11.00;;;18.20;99.90;;;;;;5061482;28;20458;-85
2021/09/10 00:29:54;;;;;;;12.67;11.47;;;18.40;99.90;;;;;;5060520;28;20500;-86
2021/09/10 00:32:31;;;;;;;14.63;11.27;;;;;;;;;;5060686;28;20446;-85
2021/09/10 00:35:05;;;;;;;16.20;10.03;;;18.20;99.90;;;;;;5060803;28;20469;-85
2021/09/10 00:37:45;;;;;;;13.87;12.00;;;18.30;99.90;;;;;;5060376;28;20450;-85
2021/09/10 00:40:30;;;;;;;12.57;11.30;;;19.40;99.90;;;;;;5062260;28;20446;-86
2021/09/10 00:42:59;;;;;;;12.17;10.97;;;;;;;;;;5061747;28;20474;-85
2021/09/10 00:48:34;;;;;;;11.87;10.73;;;18.20;99.90;;;;;;5052739;28;20434;-85
2021/09/10 00:51:08;;;;;;;13.50;10.57;;;18.30;99.90;;;;;;5064787;28;20445;-85
2021/09/10 00:53:41;;;;;;;12.47;11.27;;;;;;;;;;5064364;28;20560;-85
2021/09/10 00:56:17;;;;;;;11.83;10.63;;;18.10;99.90;;;;;;5064671;28;20424;-85
2021/09/10 00:59:00;;;;;;;12.20;10.93;;;17.80;99.90;;;;;;5065207;28;20418;-85
2021/09/10 01:01:35;;;;;;;12.67;11.13;;;20.50;99.90;;;;;;5067234;28;20416;-84
2021/09/10 01:04:22;;;;;;;13.30;11.43;;;18.10;99.90;;;;;;5065273;28;20481;-85
2021/09/10 01:06:59;;;;;;;11.50;10.40;;;18.10;99.90;;;;;;5065781;28;20449;-85
2021/09/10 01:09:51;;;;;;;12.63;11.33;;;18.10;99.90;;;;;;5065854;28;20460;-85
2021/09/10 01:12:27;;;;;;;15.63;11.90;;;18.50;99.90;;;;;;5066125;28;20454;-85
2021/09/10 01:17:46;;;;;;;14.87;10.50;;;18.10;99.90;;;;;;5065436;28;20423;-85
2021/09/10 01:20:35;;;;;;;12.53;11.43;;;17.90;99.90;;;;;;5065965;28;20511;-85
2021/09/10 01:23:09;;;;;;;14.33;12.03;;;17.90;99.90;;;;;;5065939;28;20437;-85
2021/09/10 01:25:49;;;;;;;14.07;12.67;;;17.90;99.90;;;;;;5066929;28;20550;-85
2021/09/10 01:28:16;;;;;;;12.53;11.23;;;;;;;;;;5069548;28;20454;-85
2021/09/10 01:30:49;;;;;;;14.10;12.80;;;17.90;99.90;;;;;;5070478;28;20452;-86
2021/09/10 01:33:31;;;;;;;12.50;11.30;;;17.90;99.90;;;;;;5065096;28;20442;-86
2021/09/10 01:36:09;;;;;;;12.23;10.80;;;;;;;;;;5068173;28;20454;-85
2021/09/10 01:41:45;;;;;;;12.63;11.30;;;17.70;99.90;;;;;;5060225;28;20481;-85
2021/09/10 01:44:19;;;;;;;15.20;12.27;;;17.50;99.90;;;;;;5062563;28;20478;-85
2021/09/10 01:46:59;;;;;;;16.87;11.83;;;17.70;99.90;;;;;;5063098;28;20438;-85
2021/09/10 01:49:38;;;;;;;15.70;11.93;;;17.90;99.90;;;;;;5063913;28;20536;-85
2021/09/10 01:52:28;;;;;;;14.53;11.33;;;18.30;99.90;;;;;;5064766;28;20539;-85
2021/09/10 01:58:37;;;;;;;13.23;11.93;;;17.60;99.90;;;;;;5022360;28;20428;-85
2021/09/10 02:01:09;;;;;;;13.10;11.90;;;17.20;99.90;;;;;;5030957;28;20466;-85
2021/09/10 02:03:55;;;;;;;13.73;11.13;;;17.60;99.90;;;;;;5037792;28;20538;-86
2021/09/10 02:06:30;;;;;;;13.17;11.83;;;17.70;99.90;;;;;;5036867;28;20463;-85
2021/09/10 02:09:10;;;;;;;13.77;12.23;;;;;;;;;;5037621;28;20448;-85
2021/09/10 02:11:55;;;;;;;14.33;12.90;;;17.60;99.90;;;;;;5065539;28;20502;-86
2021/09/10 02:14:27;;;;;;;13.87;12.57;;;17.50;99.90;;;;;;5064927;28;20501;-85
2021/09/10 02:17:30;;;;;;;17.03;13.57;;;19.80;99.90;;;;;;5064621;28;20442;-85
2021/09/10 02:20:07;;;;;;;14.70;13.20;;;17.20;99.90;;;;;;5064493;28;20442;-85
2021/09/10 02:22:46;;;;;;;18.37;16.53;;;17.50;99.90;;;;;;5060309;28;20470;-85
2021/09/10 02:25:16;;;;;;;17.07;15.37;;;;;;;;;;5059431;28;20493;-86
2021/09/10 02:30:50;;;;;;;14.80;13.30;;;17.50;99.90;;;;;;5053770;28;20813;-86
2021/09/10 02:33:40;;;;;;;13.93;12.30;;;17.40;99.90;;;;;;5058922;28;20446;-85
2021/09/10 02:36:15;;;;;;;14.07;12.80;;;;;;;;;;5059407;28;20845;-86
2021/09/10 02:41:32;;;;;;;16.50;13.80;;;17.30;99.90;;;;;;5076074;28;20456;-86
2021/09/10 02:44:13;;;;;;;17.97;14.20;;;17.50;99.90;;;;;;5064199;28;20482;-85
2021/09/10 02:49:42;;;;;;;17.07;13.70;;;17.70;99.90;;;;;;5060584;28;20938;-85
2021/09/10 02:52:21;;;;;;;18.97;12.70;;;20.40;99.90;;;;;;5059003;28;20482;-85
2021/09/10 02:54:54;;;;;;;14.80;13.30;;;;;;;;;;5057855;28;20552;-85
2021/09/10 02:57:25;;;;;;;14.90;13.30;;;;;;;;;;5059082;28;20505;-86
2021/09/10 03:00:11;;;;;;;;;;;;;;;;;;;;;
2021/09/10 03:02:57;;;;;;;14.60;13.10;;;16.60;99.90;;;;;;5058248;28;20442;-86
2021/09/10 03:05:31;;;;;;;17.17;14.07;;;17.50;99.90;;;;;;5057645;28;20501;-85
2021/09/10 03:08:27;;;;;;;15.07;13.30;;;17.40;99.90;;;;;;5056956;28;20449;-85
2021/09/10 03:11:05;;;;;;;14.83;13.23;;;;;;;;;;5058482;28;20458;-86
2021/09/10 03:16:22;;;;;;;18.30;12.00;;;;;;;;;;5067555;28;20457;-85
2021/09/10 03:19:06;;;;;;;14.00;12.60;;;17.20;99.90;;;;;;5058521;28;20450;-86
2021/09/10 03:21:43;;;;;;;13.53;12.30;;;;;;;;;;5057954;28;20446;-85
2021/09/10 03:24:11;;;;;;;17.53;13.43;;;17.00;99.90;;;;;;5058134;28;20486;-86
2021/09/10 03:26:52;;;;;;;14.90;13.40;;;18.90;99.90;;;;;;5057542;28;20859;-86
2021/09/10 03:29:21;;;;;;;15.00;13.17;;;;;;;;;;5062882;28;20480;-85
2021/09/10 03:31:49;;;;;;;14.83;13.03;;;;;;;;;;5067328;28;20450;-86
2021/09/10 03:34:28;;;;;;;16.23;14.33;;;17.10;99.90;;;;;;5061002;28;20466;-86
2021/09/10 03:37:07;;;;;;;16.00;14.13;;;;;;;;;;5059669;28;20457;-85
2021/09/10 03:39:44;;;;;;;16.20;13.23;;;17.00;99.90;;;;;;5073481;28;20430;-86
2021/09/10 03:42:15;;;;;;;14.30;12.90;;;;;;;;;;5060012;28;20454;-86
2021/09/10 03:45:04;;;;;;;15.80;14.20;;;17.10;99.90;;;;;;5059651;28;20488;-85
2021/09/10 03:47:31;;;;;;;13.77;12.47;;;;;;;;;;5055507;28;20450;-86
2021/09/10 03:50:18;;;;;;;14.07;12.77;;;17.20;99.90;;;;;;5059780;28;20446;-85
2021/09/10 03:52:45;;;;;;;16.50;14.90;;;;;;;;;;5046242;28;20460;-85
2021/09/10 03:55:29;;;;;;;14.83;13.43;;;17.10;99.90;;;;;;5060338;28;20822;-85
2021/09/10 03:58:21;;;;;;;16.43;14.83;;;16.80;99.90;;;;;;5059319;28;20430;-86
2021/09/10 04:01:03;;;;;;;16.33;14.63;;;17.80;99.90;;;;;;5061487;28;20473;-86
2021/09/10 04:03:38;;;;;;;16.00;14.40;;;;;;;;;;5060111;28;20492;-86
2021/09/10 04:08:52;;;;;;;14.63;13.20;;;;;;;;;;5056697;28;20434;-87
2021/09/10 04:11:32;;;;;;;16.10;13.60;;;19.20;99.90;;;;;;5057303;28;20442;-86
2021/09/10 04:14:11;;;;;;;15.10;12.70;;;17.10;99.90;;;;;;5057745;28;20823;-86
2021/09/10 04:16:59;;;;;;;16.43;13.30;;;;;;;;;;5059845;28;20449;-86
2021/09/10 04:19:26;;;;;;;17.20;14.40;;;;;;;;;;5057758;28;20967;-86
2021/09/10 04:21:53;;;;;;;15.23;13.63;;;17.10;99.90;;;;;;5057252;28;20889;-86
2021/09/10 04:24:20;;;;;;;18.43;14.90;;;17.10;99.90;;;;;;5059986;28;20485;-86
2021/09/10 04:26:47;;;;;;;15.33;13.73;;;17.00;99.90;;;;;;5060033;28;20500;-86
2021/09/10 04:29:13;;;;;;;18.70;14.80;;;17.00;99.90;;;;;;5060285;28;20517;-86
2021/09/10 04:31:40;;;;;;;15.07;13.60;;;16.90;99.90;;;;;;5061158;28;20461;-86
2021/09/10 04:34:08;;;;;;;17.17;14.67;;;17.10;99.90;;;;;;5060802;28;21048;-86
2021/09/10 04:36:35;;;;;;;17.10;14.70;;;17.10;99.90;;;;;;5061203;28;20454;-86
2021/09/10 04:39:04;;;;;;;16.10;14.50;;;17.90;99.90;;;;;;5060609;28;20468;-86
2021/09/10 04:41:32;;;;;;;19.63;15.27;;;17.10;99.90;;;;;;5059395;28;20430;-86
2021/09/10 04:44:00;;;;;;;16.30;14.80;;;17.30;99.90;;;;;;5059216;28;20482;-86
2021/09/10 04:46:26;;;;;;;17.97;15.10;;;17.10;99.90;;;;;;5071380;28;20445;-86
2021/09/10 04:48:53;;;;;;;18.00;14.53;;;17.00;99.90;;;;;;5080508;28;20521;-86
2021/09/10 04:51:20;;;;;;;15.90;14.27;;;17.10;99.90;;;;;;5080251;28;20438;-86
2021/09/10 04:53:47;;;;;;;20.37;16.90;;;;;;;;;;5068981;28;20461;-86
2021/09/10 04:56:14;;;;;;;18.77;16.77;;;17.30;99.90;;;;;;5059318;28;20459;-86
2021/09/10 04:58:47;;;;;;;21.10;17.67;;;17.10;99.90;;;;;;5060797;28;20445;-86
2021/09/10 05:01:32;;;;;;;16.27;14.40;;;17.20;99.90;;;;;;5064803;28;20435;-85
2021/09/10 05:04:00;;;;;;;15.80;14.27;;;;;;;;;;5062166;28;20969;-85
2021/09/10 05:06:46;;;;;;;17.00;14.67;;;17.20;99.90;;;;;;5067729;28;20465;-85
2021/09/10 05:09:20;;;;;;;16.50;14.80;;;;;;;;;;5070834;28;20513;-85
2021/09/10 05:12:04;;;;;;;21.63;14.23;;;17.30;99.90;;;;;;5062355;28;20476;-86
2021/09/10 05:17:45;;;;;;;19.20;17.20;;;17.40;99.90;;;;;;5053544;28;20430;-86
2021/09/10 05:20:23;;;;;;;16.73;14.90;;;18.90;99.90;;;;;;5075964;28;20495;-86
2021/09/10 05:23:09;;;;;;;17.70;14.73;;;17.60;99.90;;;;;;5063732;28;20480;-86
2021/09/10 05:25:44;;;;;;;16.43;13.90;;;17.40;99.90;;;;;;5060175;28;20509;-86
2021/09/10 05:28:28;;;;;;;18.37;16.47;;;17.40;99.90;;;;;;5060607;28;20918;-86
2021/09/10 05:31:12;;;;;;;19.90;15.60;;;17.50;99.90;;;;;;5061856;28;20450;-86
2021/09/10 05:42:42;;;;;;;20.17;16.67;;;17.40;99.90;;;;;;5075411;28;20476;-87
2021/09/10 05:45:32;;;;;;;19.80;16.17;;;17.50;99.90;;;;;;5076639;28;20477;-87
2021/09/10 05:48:25;;;;;;;29.43;16.80;;;17.50;99.90;;;;;;5076827;28;20422;-86
2021/09/10 05:53:58;;;;;;;21.07;16.50;;;19.70;99.90;;;;;;5063888;28;20804;-86
2021/09/10 05:56:32;;;;;;;19.70;16.10;;;;;;;;;;5060264;28;20533;-86
2021/09/10 05:59:20;;;;;;;22.13;15.80;;;17.40;99.90;;;;;;5059544;28;20454;-86
2021/09/10 06:02:11;;;;;;;19.60;17.30;;;17.70;99.90;;;;;;5059967;28;20453;-87
2021/09/10 06:10:40;;;;;;;19.50;17.53;;;15.40;99.90;;;;;;5062171;28;20439;-85
2021/09/10 06:13:09;;;;;;;18.10;16.30;;;;;;;;;;5063324;28;20903;-86
2021/09/10 06:18:48;;;;;;;22.60;17.80;;;18.00;99.90;;;;;;5059855;28;20443;-86
2021/09/10 06:21:30;;;;;;;23.93;17.50;;;17.70;99.90;;;;;;5062265;28;20415;-86
2021/09/10 06:24:14;;;;;;;19.53;16.67;;;;;;;;;;5062373;28;20501;-85
2021/09/10 06:26:53;;;;;;;20.73;17.67;;;18.00;99.90;;;;;;5065057;28;20489;-85
2021/09/10 06:29:31;;;;;;;20.87;16.77;;;20.10;99.90;;;;;;5063555;28;20472;-85
2021/09/10 06:32:33;;;;;;;21.87;16.87;;;18.20;99.90;;;;;;5061866;28;20446;-85
2021/09/10 06:35:23;;;;;;;18.97;16.97;;;18.20;99.90;;;;;;5062118;28;20497;-85
2021/09/10 06:43:33;;;;;;;22.20;17.10;;;18.10;99.90;;;;;;5058662;28;20434;-84
2021/09/10 06:46:00;;;;;;;18.20;14.30;;;;;;;;;;5060158;28;20524;-85
2021/09/10 06:48:45;;;;;;;16.23;14.70;;;18.40;99.90;;;;;;5066544;28;20443;-84
2021/09/10 06:51:30;;;;;;;17.23;15.40;;;18.50;99.90;;;;;;5069779;28;20457;-86
2021/09/10 06:54:06;;;;;;;18.33;16.40;;;17.20;99.90;;;;;;5067567;28;20477;-86
2021/09/10 06:56:36;;;;;;;18.33;15.57;;;18.00;99.90;;;;;;5065921;28;20584;-86
2021/09/10 06:59:37;;;;;;;19.20;15.27;;;18.80;99.90;;;;;;5060750;28;20453;-85
2021/09/10 07:02:15;;;;;;;23.90;17.60;;;;;;;;;;5055033;28;20465;-87
2021/09/10 07:07:57;;;;;;;;;;;;;;;;;;;;;
2021/09/10 07:10:30;;;;;;;17.70;15.97;;;;;;;;;;5062973;28;20926;-87
2021/09/10 07:13:18;;;;;;;17.83;16.00;;;19.20;99.90;;;;;;5061555;28;20461;-86
2021/09/10 07:18:33;;;;;;;19.80;15.30;;;19.50;99.90;;;;;;5059393;28;20480;-86
2021/09/10 07:21:04;;;;;;;18.30;14.30;;;19.40;99.90;;;;;;5072376;28;20450;-85
2021/09/10 07:24:10;;;;;;;15.90;14.40;;;19.50;99.90;;;;;;5059243;28;20915;-85
2021/09/10 07:27:06;;;;;;;17.37;14.10;;;19.60;99.90;;;;;;5060116;28;20477;-86
2021/09/10 07:29:53;;;;;;;17.57;15.67;;;19.70;99.90;;;;;;5069701;28;20450;-87
2021/09/10 07:35:10;;;;;;;16.37;14.77;;;20.00;99.90;;;;;;5062049;28;20469;-88
2021/09/10 07:37:48;;;;;;;16.10;14.50;;;;;;;;;;5072661;28;20442;-86
2021/09/10 07:40:29;;;;;;;15.93;13.60;;;20.20;99.90;;;;;;5072786;28;20465;-86
2021/09/10 07:43:19;;;;;;;16.27;14.60;;;20.00;99.90;;;;;;5065628;28;20458;-86
2021/09/10 07:46:14;;;;;;;18.60;14.57;;;;;;;;;;5064881;28;20514;-87
2021/09/10 07:51:44;;;;;;;16.17;13.60;;;20.30;99.90;;;;;;5055264;28;20434;-86
2021/09/10 07:57:40;;;;;;;15.33;13.90;;;22.80;99.90;;;;;;5056401;28;20910;-86
2021/09/10 08:00:59;;;;;;;14.23;12.90;;;20.30;99.90;;;;;;5061627;28;20476;-86
2021/09/10 08:03:57;;;;;;;17.67;13.97;;;20.80;99.90;;;;;;5060203;28;20452;-86
2021/09/10 08:06:39;;;;;;;17.60;14.57;;;21.00;99.90;;;;;;5060645;28;20887;-86
2021/09/10 08:09:20;;;;;;;15.20;13.60;;;21.10;99.90;;;;;;5061621;28;20445;-86
2021/09/10 08:12:14;;;;;;;16.03;13.27;;;21.10;99.90;;;;;;5061592;28;20814;-86
2021/09/10 08:14:44;;;;;;;14.47;12.83;;;;;;;;;;5062943;28;20508;-87
2021/09/10 08:17:33;;;;;;;13.60;11.40;;;21.00;99.90;;;;;;5064491;28;20484;-86
2021/09/10 08:26:23;;;;;;;19.00;11.60;;;;;;;;;;5061659;28;20474;-86
2021/09/10 08:32:37;;;;;;;11.67;10.43;;;24.80;99.90;;;;;;5056401;28;20473;-85
2021/09/10 08:40:52;;;;;;;14.53;12.10;;;21.70;99.90;;;;;;5058766;28;20492;-86
2021/09/10 08:49:32;;;;;;;11.20;10.10;;;23.10;99.90;;;;;;5052389;28;20509;-87
2021/09/10 08:52:45;;;;;;;10.57;9.57;;;21.20;99.90;;;;;;5064446;28;20483;-86
2021/09/10 08:55:31;;;;;;;10.50;9.50;;;;;;;;;;5063749;28;20469;-87
2021/09/10 09:04:26;;;;;;;12.03;10.50;;;22.40;99.90;;;;;;5061841;28;20500;-86
2021/09/10 09:10:17;;;;;;;14.23;12.70;;;22.70;99.90;;;;;;5062772;28;20461;-86
2021/09/10 09:13:24;;;;;;;;;;;;;;;;;;;;;
2021/09/10 09:16:24;;;;;;;17.67;14.90;;;22.80;99.90;;;;;;5062246;28;20446;-87
2021/09/10 09:19:02;;;;;;;12.20;10.10;;;22.40;99.90;;;;;;5062125;28;20454;-86
2021/09/10 09:21:38;;;;;;;13.63;12.30;;;22.40;99.90;;;;;;5063836;28;20457;-87
2021/09/10 09:24:31;;;;;;;17.33;13.93;;;21.40;99.90;;;;;;5062085;28;20481;-88
2021/09/10 09:27:40;;;;;;;18.60;15.90;;;21.60;99.90;;;;;;5060824;28;20466;-85
2021/09/10 09:30:43;;;;;;;11.70;10.70;;;22.60;99.90;;;;;;5059799;28;20810;-86
2021/09/10 09:36:30;;;;;;;12.40;11.00;;;24.70;99.90;;;;;;5060502;28;20534;-86
2021/09/10 09:39:34;;;;;;;;;;;;;;;;;;;;;
2021/09/10 09:42:50;;;;;;;10.67;9.77;;;22.60;99.90;;;;;;5058401;28;20792;-86
2021/09/10 09:45:42;;;;;;;12.00;11.00;;;25.00;99.90;;;;;;5052410;28;20474;-86
2021/09/10 09:48:26;;;;;;;12.37;11.10;;;23.20;99.90;;;;;;5062791;28;20502;-86
2021/09/10 09:54:40;;;;;;;11.30;9.47;;;23.30;99.90;;;;;;5059421;28;20474;-86
2021/09/10 09:57:15;;;;;;;10.40;9.40;;;24.30;99.90;;;;;;5061648;28;20450;-87
2021/09/10 09:59:54;;;;;;;11.13;10.03;;;23.50;99.90;;;;;;5065592;28;20929;-86
2021/09/10 10:10:02;;;;;;;11.27;10.07;;;23.40;99.90;;;;;;5014286;28;20440;-86
2021/09/10 10:21:14;;;;;;;12.37;10.43;;;23.80;99.90;;;;;;4925377;26;20476;-86
2021/09/10 10:24:39;;;;;;;11.27;10.20;;;23.80;99.90;;;;;;5107953;28;20465;-86
2021/09/10 10:27:46;;;;;;;12.30;8.77;;;24.50;99.90;;;;;;5080646;28;20476;-86
2021/09/10 10:30:55;;;;;;;9.10;8.20;;;23.80;99.90;;;;;;5080387;28;20453;-85
2021/09/10 10:33:27;;;;;;;9.27;8.37;;;23.90;99.90;;;;;;5128533;23;20618;-86
2021/09/10 10:35:54;;;;;;;9.83;9.00;;;24.10;99.90;;;;;;5111197;28;20451;-86
2021/09/10 10:38:23;;;;;;;9.37;8.50;;;24.10;99.90;;;;;;5116301;28;20432;-87
2021/09/10 10:40:50;;;;;;;9.93;9.03;;;24.00;99.90;;;;;;5117913;28;20450;-87
2021/09/10 10:43:27;;;;;;;16.30;10.77;;;24.10;99.90;;;;;;5102874;28;20499;-87
2021/09/10 10:46:12;;;;;;;10.97;9.97;;;24.30;99.90;;;;;;5090102;28;20468;-87
2021/09/10 10:48:46;;;;;;;11.30;10.10;;;24.40;99.90;;;;;;5096384;28;20464;-87
2021/09/10 10:51:38;;;;;;;10.17;9.27;;;24.20;99.90;;;;;;5095872;28;20426;-87
2021/09/10 10:54:12;;;;;;;12.13;10.27;;;24.30;99.90;;;;;;5089401;28;20461;-86
2021/09/10 10:56:46;;;;;;;10.97;9.83;;;24.20;99.90;;;;;;5094500;28;20424;-86
2021/09/10 10:59:29;;;;;;;12.20;9.87;;;24.20;99.90;;;;;;5095096;28;20436;-87
2021/09/10 11:02:38;;;;;;;9.77;8.97;;;24.40;99.90;;;;;;5095540;28;20467;-87
2021/09/10 11:05:26;;;;;;;11.83;10.60;;;24.20;99.90;;;;;;5096561;28;20490;-86
2021/09/10 11:07:54;;;;;;;13.00;9.70;;;24.50;99.90;;;;;;5093084;28;20469;-86
2021/09/10 11:10:22;;;;;;;11.37;10.30;;;24.70;99.90;;;;;;5095721;28;20445;-87
2021/09/10 11:12:55;;;;;;;10.63;9.30;;;24.50;99.90;;;;;;5095587;28;20469;-87
2021/09/10 11:15:27;;;;;;;11.17;10.17;;;24.70;99.90;;;;;;5094238;28;20433;-86
2021/09/10 11:17:59;;;;;;;13.33;10.27;;;24.80;99.90;;;;;;5097446;28;20472;-87
2021/09/10 11:20:37;;;;;;;11.30;8.73;;;24.90;99.90;;;;;;5097548;28;20429;-87
2021/09/10 11:23:06;;;;;;;9.40;8.50;;;24.90;99.90;;;;;;5097920;28;20453;-87
2021/09/10 11:25:34;;;;;;;10.50;9.50;;;24.80;99.90;;;;;;5098296;28;20430;-88
2021/09/10 11:28:08;;;;;;;13.10;10.90;;;24.90;99.90;;;;;;5098163;28;20473;-87
2021/09/10 11:30:35;;;;;;;9.77;8.80;;;;;;;;;;5098296;28;20418;-89
2021/09/10 11:33:03;;;;;;;9.37;8.57;;;24.50;99.90;;;;;;5098412;28;20473;-87
2021/09/10 11:35:31;;;;;;;11.43;8.53;;;24.70;99.90;;;;;;5098183;28;20437;-87
2021/09/10 11:37:59;;;;;;;9.50;8.70;;;25.00;99.90;;;;;;5098352;28;20507;-89
2021/09/10 11:40:39;;;;;;;9.80;8.90;;;25.00;99.90;;;;;;5098615;28;20441;-89
2021/09/10 11:43:08;;;;;;;12.77;11.23;;;25.00;99.90;;;;;;5098353;28;20468;-88
2021/09/10 11:45:37;;;;;;;11.23;9.83;;;25.00;99.90;;;;;;5098346;28;20467;-88
2021/09/10 11:48:06;;;;;;;10.40;9.30;;;25.00;99.90;;;;;;5098255;28;20475;-87
2021/09/10 11:50:54;;;;;;;10.97;9.77;;;25.00;99.90;;;;;;5098083;28;20436;-86
2021/09/10 11:53:24;;;;;;;11.70;10.50;;;25.10;99.90;;;;;;5097437;28;20457;-86
2021/09/10 11:56:04;;;;;;;12.27;9.70;;;25.10;99.90;;;;;;5094738;28;20476;-86
2021/09/10 11:58:33;;;;;;;9.93;9.00;;;25.20;99.90;;;;;;5089301;28;20422;-87
2021/09/10 12:01:12;;;;;;;10.60;9.40;;;25.10;99.90;;;;;;5088198;28;20475;-87
2021/09/10 12:03:46;;;;;;;10.03;9.13;;;25.30;99.90;;;;;;5088133;28;20473;-86
2021/09/10 12:06:16;;;;;;;11.20;10.10;;;25.50;99.90;;;;;;5086327;28;20465;-87
2021/09/10 12:09:11;;;;;;;10.70;9.60;;;25.80;99.90;;;;;;5084329;28;20438;-87
2021/09/10 12:11:55;;;;;;;9.93;8.90;;;25.90;99.90;;;;;;5090855;28;20469;-86
2021/09/10 12:14:27;;;;;;;10.33;9.30;;;25.70;99.90;;;;;;5088432;28;20425;-87
2021/09/10 12:17:05;;;;;;;9.83;8.50;;;25.90;99.90;;;;;;5089605;28;20445;-86
2021/09/10 12:19:32;;;;;;;11.53;10.40;;;25.70;99.90;;;;;;5090834;28;20475;-87
2021/09/10 12:21:58;;;;;;;10.40;9.40;;;25.80;99.90;;;;;;5091164;28;20442;-87
2021/09/10 12:24:25;;;;;;;11.73;10.73;;;25.40;99.90;;;;;;5092009;28;20433;-88
2021/09/10 12:26:54;;;;;;;13.03;11.83;;;25.50;99.90;;;;;;5092234;28;20465;-86
2021/09/10 12:29:24;;;;;;;12.23;11.03;;;25.60;99.90;;;;;;5094934;28;20425;-87
2021/09/10 12:31:50;;;;;;;11.30;10.40;;;25.10;99.90;;;;;;5094366;28;20433;-87
2021/09/10 12:34:17;;;;;;;12.83;11.50;;;25.20;99.90;;;;;;5093205;28;20445;-86
2021/09/10 12:36:46;;;;;;;11.07;10.07;;;25.30;99.90;;;;;;5092370;28;20854;-86
2021/09/10 12:39:13;;;;;;;10.93;9.90;;;25.00;99.90;;;;;;5097229;28;20437;-86
2021/09/10 12:41:39;;;;;;;11.77;10.63;;;25.00;99.90;;;;;;5097703;28;20433;-87
2021/09/10 12:44:09;;;;;;;14.67;11.77;;;25.10;99.90;;;;;;5099512;28;20453;-87
2021/09/10 12:46:36;;;;;;;19.70;13.20;;;24.50;99.90;;;;;;5089268;28;20490;-87
2021/09/10 12:49:03;;;;;;;18.70;15.43;;;24.90;99.90;;;;;;5088243;28;20521;-87
2021/09/10 12:51:30;;;;;;;20.50;14.80;;;24.30;99.90;;;;;;5091697;28;20441;-86
2021/09/10 12:53:56;;;;;;;32.97;17.23;;;23.60;99.90;;;;;;5096735;28;20449;-86
2021/09/10 12:56:24;;;;;;;17.87;12.77;;;23.10;99.90;;;;;;5087464;28;20449;-87
2021/09/10 12:58:50;;;;;;;19.60;12.73;;;22.80;99.90;;;;;;5085408;28;20937;-87
2021/09/10 13:01:19;;;;;;;18.90;16.17;;;22.30;99.90;;;;;;5091287;28;20456;-87
2021/09/10 13:03:47;;;;;;;24.63;19.80;;;22.00;99.90;;;;;;5082676;28;20511;-86
2021/09/10 13:06:14;;;;;;;26.03;16.47;;;21.80;99.90;;;;;;5080638;28;20823;-86
2021/09/10 13:08:40;;;;;;;22.70;14.67;;;21.60;99.90;;;;;;5080461;28;20798;-86
2021/09/10 13:11:07;;;;;;;14.20;7.93;;;21.10;99.90;;;;;;5088608;28;20471;-86
2021/09/10 13:13:34;;;;;;;11.40;5.20;;;20.20;99.90;;;;;;5092115;28;20471;-87
2021/09/10 13:16:02;;;;;;;15.33;7.10;;;19.90;99.90;;;;;;5090273;28;20503;-87
2021/09/10 13:18:30;;;;;;;8.80;6.20;;;19.50;99.90;;;;;;5088436;28;20444;-86
2021/09/10 13:20:57;;;;;;;9.43;7.33;;;19.40;99.90;;;;;;5094635;28;20433;-87
2021/09/10 13:23:24;;;;;;;11.80;7.10;;;19.50;99.90;;;;;;5095449;28;20529;-86
2021/09/10 13:25:51;;;;;;;9.10;7.73;;;19.90;99.90;;;;;;5085261;28;20445;-87
2021/09/10 13:28:18;;;;;;;10.47;7.77;;;19.80;99.90;;;;;;5078483;28;20511;-87
2021/09/10 13:30:44;;;;;;;10.70;8.87;;;19.70;99.90;;;;;;5079561;28;20507;-86
2021/09/10 13:33:11;;;;;;;12.23;8.40;;;19.70;99.90;;;;;;5081364;28;20515;-85
2021/09/10 13:35:39;;;;;;;7.97;7.17;;;19.70;99.90;;;;;;5083084;28;20445;-86
2021/09/10 13:38:05;;;;;;;9.50;8.50;;;19.60;99.90;;;;;;5080767;28;20441;-86
2021/09/10 13:40:32;;;;;;;10.43;8.53;;;20.00;99.90;;;;;;5079626;28;20475;-86
2021/09/10 13:42:59;;;;;;;12.47;11.10;;;20.00;99.90;;;;;;5079896;28;20469;-86
2021/09/10 13:45:25;;;;;;;12.53;11.37;;;20.10;99.90;;;;;;5089206;28;20449;-86
2021/09/10 13:47:52;;;;;;;13.20;10.10;;;20.20;99.90;;;;;;5090919;28;20488;-85
2021/09/10 13:50:20;;;;;;;12.33;11.07;;;20.20;99.90;;;;;;5091111;28;20567;-86
2021/09/10 13:52:51;;;;;;;10.93;9.93;;;20.20;99.90;;;;;;5093522;28;20472;-86
2021/09/10 13:55:18;;;;;;;14.37;10.73;;;20.10;99.90;;;;;;5097230;28;20433;-87
2021/09/10 13:57:45;;;;;;;12.90;9.27;;;20.00;99.90;;;;;;5097919;28;20476;-86
2021/09/10 14:00:15;;;;;;;11.83;10.00;;;20.10;99.90;;;;;;5097911;28;20445;-86
2021/09/10 14:02:42;;;;;;;13.27;10.73;;;20.10;99.90;;;;;;5095896;28;20465;-86
2021/09/10 14:05:10;;;;;;;14.53;10.90;;;20.10;99.90;;;;;;5096969;28;20433;-88
2021/09/10 14:07:37;;;;;;;11.23;10.20;;;20.00;99.90;;;;;;5095017;28;20543;-86
2021/09/10 14:10:06;;;;;;;15.33;12.73;;;20.00;99.90;;;;;;5093924;28;20441;-87
2021/09/10 14:12:32;;;;;;;12.03;10.47;;;20.10;99.90;;;;;;5083266;28;20465;-86
2021/09/10 14:14:59;;;;;;;12.53;10.90;;;20.00;99.90;;;;;;5082473;28;20453;-87
2021/09/10 14:17:25;;;;;;;12.40;10.60;;;20.10;99.90;;;;;;5081044;28;20929;-87
2021/09/10 14:19:52;;;;;;;13.67;11.40;;;20.10;99.90;;;;;;5080851;28;20473;-86
2021/09/10 14:22:19;;;;;;;16.40;11.73;;;20.10;99.90;;;;;;5080040;28;20519;-87
2021/09/10 14:24:46;;;;;;;18.77;13.53;;;20.10;99.90;;;;;;5080921;28;20495;-86
2021/09/10 14:27:13;;;;;;;12.97;11.23;;;20.10;99.90;;;;;;5083000;28;20564;-86
2021/09/10 14:29:40;;;;;;;16.77;12.53;;;20.10;99.90;;;;;;5082772;28;20449;-86
2021/09/10 14:32:08;;;;;;;14.17;12.53;;;20.10;99.90;;;;;;5081344;28;20473;-87
2021/09/10 14:34:35;;;;;;;12.60;11.40;;;20.10;99.90;;;;;;5083530;28;20434;-86
2021/09/10 14:37:01;;;;;;;18.20;10.93;;;20.00;99.90;;;;;;5080267;28;20441;-86
2021/09/10 14:39:30;;;;;;;12.00;10.70;;;20.00;99.90;;;;;;5078819;28;20475;-86
2021/09/10 14:41:56;;;;;;;13.93;12.43;;;20.00;99.90;;;;;;5078604;28;20874;-86
2021/09/10 14:44:24;;;;;;;13.80;11.30;;;20.10;99.90;;;;;;5081575;28;20524;-86
2021/09/10 14:46:51;;;;;;;17.27;13.23;;;19.90;99.90;;;;;;5082757;28;20456;-86
2021/09/10 14:49:17;;;;;;;13.87;10.37;;;19.80;99.90;;;;;;5089572;28;20794;-86
2021/09/10 14:51:44;;;;;;;12.83;10.90;;;19.80;99.90;;;;;;5088909;28;20460;-86
2021/09/10 14:54:11;;;;;;;13.43;10.43;;;;;;;;;;5091955;28;20498;-86
2021/09/10 14:56:38;;;;;;;12.87;11.57;;;19.80;99.90;;;;;;5091383;28;20445;-85
2021/09/10 14:59:07;;;;;;;12.97;11.70;;;19.80;99.90;;;;;;5087586;28;20445;-85
2021/09/10 15:01:39;;;;;;;15.37;13.13;;;19.80;99.90;;;;;;5082968;28;20459;-86
2021/09/10 15:04:06;;;;;;;14.10;12.70;;;19.80;99.90;;;;;;5088213;28;20464;-85
2021/09/10 15:06:33;;;;;;;13.70;12.17;;;19.90;99.90;;;;;;5089915;28;20446;-86
2021/09/10 15:09:00;;;;;;;17.10;12.80;;;19.30;99.90;;;;;;5081710;28;20481;-86
2021/09/10 15:11:26;;;;;;;14.63;11.43;;;19.80;99.90;;;;;;5081951;28;20503;-86
2021/09/10 15:13:53;;;;;;;17.70;12.37;;;19.90;99.90;;;;;;5084058;28;21005;-87
2021/09/10 15:16:20;;;;;;;15.10;12.70;;;19.80;99.90;;;;;;5084696;28;20475;-86
2021/09/10 15:18:50;;;;;;;17.37;12.50;;;19.80;99.90;;;;;;5082919;28;20444;-87
2021/09/10 15:21:20;;;;;;;20.83;13.77;;;19.80;99.90;;;;;;5085556;28;20406;-86
2021/09/10 15:23:47;;;;;;;15.67;11.93;;;19.90;99.90;;;;;;5082617;28;20450;-87
2021/09/10 15:26:14;;;;;;;13.80;11.63;;;19.90;99.90;;;;;;5083411;28;20444;-86
2021/09/10 15:28:40;;;;;;;12.63;11.30;;;19.80;99.90;;;;;;5081566;28;20899;-87
2021/09/10 15:31:08;;;;;;;12.17;10.70;;;19.80;99.90;;;;;;5079468;28;20479;-88
2021/09/10 15:33:35;;;;;;;14.50;13.00;;;19.90;99.90;;;;;;5078576;28;20546;-86
2021/09/10 15:36:03;;;;;;;15.80;11.77;;;19.80;99.90;;;;;;5078071;28;20933;-86
2021/09/10 15:38:30;;;;;;;14.33;12.83;;;19.90;99.90;;;;;;5096259;28;20451;-86